createdAt,value
2022-10-07T00:00:02.794Z,1030.31
2022-10-07T00:05:02.292Z,1030.26
2022-10-07T00:10:02.934Z,1030.25
2022-10-07T00:15:02.634Z,1030.3
2022-10-07T00:20:02.281Z,1030.22
2022-10-07T00:25:03.022Z,1030.24
2022-10-07T00:30:08.395Z,1030.33
2022-10-07T00:35:02.536Z,1030.14
2022-10-07T00:40:02.682Z,1030.14
2022-10-07T00:45:02.328Z,1030
2022-10-07T00:50:02.933Z,1029.97
2022-10-07T00:55:04.211Z,1029.92
2022-10-07T01:00:02.446Z,1029.84
2022-10-07T01:05:03.106Z,1029.84
2022-10-07T01:10:02.698Z,1029.82
2022-10-07T01:15:03.402Z,1029.68
2022-10-07T01:20:02.944Z,1029.62
2022-10-07T01:25:02.565Z,1029.55
2022-10-07T01:30:03.247Z,1029.52
2022-10-07T01:35:03.048Z,1029.4
2022-10-07T01:40:02.782Z,1029.45
2022-10-07T01:45:02.674Z,1029.43
2022-10-07T01:50:03.068Z,1029.37
2022-10-07T01:55:04.069Z,1029.33
2022-10-07T02:00:02.433Z,1029.31
2022-10-07T02:05:03.053Z,1029.17
2022-10-07T02:10:02.717Z,1029.24
2022-10-07T02:15:02.377Z,1029.17
2022-10-07T02:20:03.432Z,1029.09
2022-10-07T02:25:03.166Z,1029
2022-10-07T02:30:02.852Z,1029.01
2022-10-07T02:35:03.480Z,1029.02
2022-10-07T02:40:12.703Z,1029.04
2022-10-07T02:45:03.500Z,1028.96
2022-10-07T02:50:03.123Z,1028.92
2022-10-07T02:55:03.975Z,1028.88
2022-10-07T03:00:11.819Z,1028.8
2022-10-07T03:05:03.501Z,1028.85
2022-10-07T03:10:03.127Z,1028.73
2022-10-07T03:15:02.772Z,1028.67
2022-10-07T03:20:03.423Z,1028.55
2022-10-07T03:25:03.489Z,1028.48
2022-10-07T03:30:03.063Z,1028.49
2022-10-07T03:35:02.643Z,1028.46
2022-10-07T03:40:03.335Z,1028.54
2022-10-07T03:45:03.221Z,1028.61
2022-10-07T03:50:02.976Z,1028.49
2022-10-07T03:55:03.674Z,1028.41
2022-10-07T04:00:03.302Z,1028.39
2022-10-07T04:05:03.059Z,1028.4
2022-10-07T04:10:02.743Z,1028.33
2022-10-07T04:15:03.395Z,1028.3
2022-10-07T04:20:03.175Z,1028.26
2022-10-07T04:25:02.807Z,1028.25
2022-10-07T04:30:03.025Z,1028.22
2022-10-07T04:35:03.100Z,1028.03
2022-10-07T04:40:02.926Z,1027.96
2022-10-07T04:45:02.848Z,1027.97
2022-10-07T04:50:03.567Z,1027.96
2022-10-07T04:55:03.945Z,1027.93
2022-10-07T05:00:02.903Z,1027.91
2022-10-07T05:05:03.099Z,1027.84
2022-10-07T05:10:02.735Z,1027.84
2022-10-07T05:15:02.562Z,1027.81
2022-10-07T05:20:02.196Z,1027.73
2022-10-07T05:25:02.877Z,1027.63
2022-10-07T05:30:02.551Z,1027.6
2022-10-07T05:35:02.206Z,1027.68
2022-10-07T05:40:02.881Z,1027.55
2022-10-07T05:45:02.629Z,1027.59
2022-10-07T05:50:02.296Z,1027.66
2022-10-07T05:55:04.526Z,1027.54
2022-10-07T06:00:02.650Z,1027.54
2022-10-07T06:05:02.285Z,1027.42
2022-10-07T06:10:03.002Z,1027.58
2022-10-07T06:15:02.717Z,1027.49
2022-10-07T06:20:02.486Z,1027.43
2022-10-07T06:25:03.171Z,1027.56
2022-10-07T06:30:03.087Z,1027.51
2022-10-07T06:35:02.747Z,1027.51
2022-10-07T06:40:02.530Z,1027.52
2022-10-07T06:45:02.278Z,1027.59
2022-10-07T06:50:03.370Z,1027.63
2022-10-07T06:55:04.095Z,1027.56
2022-10-07T07:00:03.648Z,1027.58
2022-10-07T07:10:03.079Z,1027.45
2022-10-07T07:15:02.769Z,1027.45
2022-10-07T07:20:03.415Z,1027.58
2022-10-07T07:25:03.078Z,1027.62
2022-10-07T07:30:02.766Z,1027.61
2022-10-07T07:35:03.664Z,1027.44
2022-10-07T07:40:03.080Z,1027.33
2022-10-07T07:45:02.835Z,1027.31
2022-10-07T07:50:02.915Z,1027.3
2022-10-07T07:55:04.529Z,1027.34
2022-10-07T08:00:03.388Z,1027.26
2022-10-07T08:05:02.991Z,1027.15
2022-10-07T08:10:02.775Z,1027.08
2022-10-07T08:15:03.463Z,1027.09
2022-10-07T08:20:03.161Z,1027.06
2022-10-07T08:25:02.772Z,1027.07
2022-10-07T08:30:03.513Z,1027.02
2022-10-07T08:35:03.133Z,1027.05
2022-10-07T08:40:02.907Z,1026.97
2022-10-07T08:45:03.601Z,1026.87
2022-10-07T08:50:03.218Z,1026.75
2022-10-07T08:55:03.818Z,1026.8
2022-10-07T09:00:02.749Z,1026.79
2022-10-07T09:05:03.387Z,1026.69
2022-10-07T09:10:03.108Z,1026.66
2022-10-07T09:15:02.630Z,1026.48
2022-10-07T09:20:02.210Z,1026.33
2022-10-07T09:25:04.367Z,1026.35
2022-10-07T09:30:03.250Z,1026.26
2022-10-07T09:35:02.904Z,1026.22
2022-10-07T09:40:02.813Z,1026.19
2022-10-07T09:45:02.387Z,1026.13
2022-10-07T09:50:02.978Z,1026.14
2022-10-07T09:55:03.926Z,1025.96
2022-10-07T10:00:02.300Z,1025.97
2022-10-07T10:05:02.974Z,1025.8
2022-10-07T10:10:02.753Z,1025.78
2022-10-07T10:15:02.350Z,1025.89
2022-10-07T10:20:03.062Z,1025.74
2022-10-07T10:25:02.921Z,1025.78
2022-10-07T10:30:02.641Z,1025.53
2022-10-07T10:35:02.253Z,1025.37
2022-10-07T10:40:02.930Z,1025.37
2022-10-07T10:45:02.655Z,1025.36
2022-10-07T10:50:03.104Z,1025.24
2022-10-07T10:55:04.397Z,1025.01
2022-10-07T11:00:02.459Z,1024.82
2022-10-07T11:05:02.464Z,1024.74
2022-10-07T11:10:02.296Z,1024.68
2022-10-07T11:15:02.948Z,1024.68
2022-10-07T11:20:02.685Z,1024.51
2022-10-07T11:25:02.314Z,1024.47
2022-10-07T11:30:02.315Z,1024.49
2022-10-07T11:35:03.032Z,1024.25
2022-10-07T11:40:02.771Z,1024.21
2022-10-07T11:45:03.184Z,1024.11
2022-10-07T11:50:02.321Z,1024.02
2022-10-07T11:55:05.323Z,1023.83
2022-10-07T12:00:03.207Z,1023.84
2022-10-07T12:05:02.910Z,1023.73
2022-10-07T12:10:03.587Z,1023.55
2022-10-07T12:15:03.346Z,1023.54
2022-10-07T12:20:03.127Z,1023.49
2022-10-07T12:25:02.744Z,1023.41
2022-10-07T12:30:03.451Z,1023.35
2022-10-07T12:35:03.078Z,1023.24
2022-10-07T12:40:02.931Z,1023.05
2022-10-07T12:45:03.063Z,1023.04
2022-10-07T12:50:02.778Z,1023.09
2022-10-07T12:55:03.744Z,1023.08
2022-10-07T13:00:03.108Z,1022.94
2022-10-07T13:05:02.743Z,1022.88
2022-10-07T13:10:02.413Z,1022.86
2022-10-07T13:15:02.387Z,1022.71
2022-10-07T13:20:03.161Z,1022.7
2022-10-07T13:25:02.885Z,1022.6
2022-10-07T13:30:02.795Z,1022.43
2022-10-07T13:35:02.461Z,1022.38
2022-10-07T13:40:03.126Z,1022.34
2022-10-07T13:45:02.810Z,1022.24
2022-10-07T13:55:04.559Z,1022.06
2022-10-07T14:00:03.166Z,1021.99
2022-10-07T14:05:02.497Z,1021.94
2022-10-07T14:10:03.107Z,1021.87
2022-10-07T14:15:02.842Z,1021.75
2022-10-07T14:20:02.668Z,1021.72
2022-10-07T14:25:03.294Z,1021.62
2022-10-07T14:30:02.854Z,1021.58
2022-10-07T14:35:02.427Z,1021.44
2022-10-07T14:40:03.121Z,1021.32
2022-10-07T14:45:02.792Z,1021.24
2022-10-07T14:50:02.427Z,1021.15
2022-10-07T14:55:04.412Z,1021.09
2022-10-07T15:00:03.186Z,1020.97
2022-10-07T15:05:02.476Z,1020.88
2022-10-07T15:10:03.142Z,1020.85
2022-10-07T15:15:02.815Z,1020.74
2022-10-07T15:20:02.459Z,1020.72
2022-10-07T15:25:03.067Z,1020.71
2022-10-07T15:30:02.746Z,1020.67
2022-10-07T15:35:02.348Z,1020.67
2022-10-07T15:40:02.988Z,1020.7
2022-10-07T15:45:02.652Z,1020.62
2022-10-07T15:50:02.578Z,1020.49
2022-10-07T15:55:08.771Z,1020.5
2022-10-07T16:00:03.068Z,1020.46
2022-10-07T16:05:02.727Z,1020.45
2022-10-07T16:10:02.315Z,1020.38
2022-10-07T16:15:03.395Z,1020.49
2022-10-07T16:20:11.974Z,1020.45
2022-10-07T16:25:02.853Z,1020.48
2022-10-07T16:30:03.389Z,1020.4
2022-10-07T16:35:02.571Z,1020.41
2022-10-07T16:40:02.529Z,1020.29
2022-10-07T16:45:03.162Z,1020.36
2022-10-07T16:50:05.358Z,1020.33
2022-10-07T16:55:04.304Z,1020.29
2022-10-07T17:00:02.950Z,1020.27
2022-10-07T17:05:03.152Z,1020.25
2022-10-07T17:10:02.877Z,1020.36
2022-10-07T17:15:02.438Z,1020.32
2022-10-07T17:20:02.226Z,1020.35
2022-10-07T17:25:02.930Z,1020.32
2022-10-07T17:30:02.501Z,1020.32
2022-10-07T17:35:02.205Z,1020.34
2022-10-07T17:40:03.035Z,1020.33
2022-10-07T17:45:02.651Z,1020.27
2022-10-07T17:50:02.246Z,1020.19
2022-10-07T17:55:03.846Z,1020.15
2022-10-07T18:00:03.241Z,1020.02
2022-10-07T18:05:02.825Z,1020.05
2022-10-07T18:10:02.440Z,1020
2022-10-07T18:15:03.116Z,1019.87
2022-10-07T18:20:02.775Z,1019.89
2022-10-07T18:25:02.401Z,1019.87
2022-10-07T18:30:02.961Z,1019.88
2022-10-07T18:35:02.539Z,1019.81
2022-10-07T18:40:03.211Z,1019.85
2022-10-07T18:45:03.238Z,1019.78
2022-10-07T18:50:02.701Z,1019.77
2022-10-07T18:55:03.954Z,1019.63
2022-10-07T19:00:03.407Z,1019.65
2022-10-07T19:05:03.130Z,1019.52
2022-10-07T19:10:02.665Z,1019.49
2022-10-07T19:15:03.396Z,1019.48
2022-10-07T19:20:03.189Z,1019.45
2022-10-07T19:25:02.752Z,1019.33
2022-10-07T19:30:03.501Z,1019.38
2022-10-07T19:35:03.043Z,1019.35
2022-10-07T19:40:02.649Z,1019.34
2022-10-07T19:45:03.409Z,1019.23
2022-10-07T19:50:02.879Z,1019.27
2022-10-07T19:55:04.400Z,1019.22
2022-10-07T20:00:03.444Z,1019.21
2022-10-07T20:05:02.623Z,1019.16
2022-10-07T20:10:02.242Z,1019.08
2022-10-07T20:15:02.882Z,1019.12
2022-10-07T20:20:02.421Z,1019.07
2022-10-07T20:25:03.033Z,1019.03
2022-10-07T20:30:02.854Z,1019.09
2022-10-07T20:35:02.448Z,1018.93
2022-10-07T20:40:03.115Z,1018.92
2022-10-07T20:45:02.654Z,1018.87
2022-10-07T20:50:02.274Z,1018.87
2022-10-07T20:55:04.319Z,1018.75
2022-10-07T21:00:02.512Z,1018.84
2022-10-07T21:05:03.130Z,1018.76
2022-10-07T21:10:02.822Z,1018.67
2022-10-07T21:15:02.661Z,1018.77
2022-10-07T21:20:02.313Z,1018.68
2022-10-07T21:25:02.946Z,1018.65
2022-10-07T21:30:02.620Z,1018.59
2022-10-07T21:35:03.204Z,1018.6
2022-10-07T21:40:02.836Z,1018.53
2022-10-07T21:45:02.532Z,1018.49
2022-10-07T21:50:03.207Z,1018.47
2022-10-07T21:55:04.072Z,1018.4
2022-10-07T22:00:02.824Z,1018.38
2022-10-07T22:05:02.366Z,1018.3
2022-10-07T22:10:03.049Z,1018.29
2022-10-07T22:15:02.755Z,1018.25
2022-10-07T22:20:02.495Z,1018.2
2022-10-07T22:25:03.129Z,1018.16
2022-10-07T22:30:02.806Z,1018.1
2022-10-07T22:35:02.415Z,1017.96
2022-10-07T22:40:03.066Z,1017.91
2022-10-07T22:45:02.725Z,1017.97
2022-10-07T22:50:02.375Z,1017.87
2022-10-07T22:55:04.073Z,1017.81
2022-10-07T23:00:02.533Z,1017.78
2022-10-07T23:05:02.214Z,1017.76
2022-10-07T23:10:02.864Z,1017.71
2022-10-07T23:15:02.518Z,1017.66
2022-10-07T23:20:03.174Z,1017.61
2022-10-07T23:25:02.900Z,1017.48
2022-10-07T23:30:02.567Z,1017.58
2022-10-07T23:35:02.266Z,1017.51
2022-10-07T23:40:03.352Z,1017.55
2022-10-07T23:45:02.774Z,1017.5
2022-10-07T23:50:03.348Z,1017.34
2022-10-07T23:55:04.322Z,1017.35
